Time,TemperatureF,DewpointF,PressureIn,WindDirection,WindDirectionDegrees,WindSpeedMPH,WindSpeedGustMPH,Humidity,HourlyPrecipIn,Conditions,Clouds,dailyrainin,SoftwareType,DateUTC
2013-09-08 00:09:00,61.4,54.0,29.75,SSW,207,2.0,4.0,77,0.00,,,0.02,weatherlink.com 1.10,2013-09-08 04:09:00,
2013-09-08 00:25:00,61.4,55.0,29.74,South,171,0.0,3.0,78,0.00,,,0.02,weatherlink.com 1.10,2013-09-08 04:25:00,
2013-09-08 00:40:00,61.0,54.0,29.74,South,173,0.0,1.0,78,0.00,,,0.02,weatherlink.com 1.10,2013-09-08 04:40:00,
2013-09-08 00:55:00,60.6,54.0,29.74,SE,145,0.0,3.0,80,0.00,,,0.02,weatherlink.com 1.10,2013-09-08 04:55:00,
2013-09-08 01:10:00,60.6,55.0,29.73,SE,146,0.0,1.0,81,0.00,,,0.00,weatherlink.com 1.10,2013-09-08 05:10:00,
2013-09-08 01:25:00,60.6,54.0,29.74,NW,304,1.0,2.0,79,0.00,,,0.00,weatherlink.com 1.10,2013-09-08 05:25:00,
2013-09-08 01:40:00,61.1,53.0,29.72,NE,49,0.0,1.0,74,0.00,,,0.00,weatherlink.com 1.10,2013-09-08 05:40:00,
2013-09-08 01:55:00,61.4,51.0,29.72,NNW,341,0.0,2.0,69,0.00,,,0.00,weatherlink.com 1.10,2013-09-08 05:55:00,
2013-09-08 02:10:00,61.0,53.0,29.72,NNW,341,0.0,1.0,74,0.00,,,0.00,weatherlink.com 1.10,2013-09-08 06:10:00,
2013-09-08 02:25:00,59.3,51.0,29.71,NNW,341,0.0,0.0,75,0.00,,,0.00,weatherlink.com 1.10,2013-09-08 06:25:00,
2013-09-08 02:41:00,58.4,53.0,29.71,NNW,341,0.0,1.0,83,0.00,,,0.00,weatherlink.com 1.10,2013-09-08 06:41:00,
2013-09-08 02:55:00,57.7,53.0,29.70,NNW,341,0.0,1.0,83,0.00,,,0.00,weatherlink.com 1.10,2013-09-08 06:55:00,
2013-09-08 03:10:00,57.5,53.0,29.70,South,184,0.0,1.0,86,0.00,,,0.00,weatherlink.com 1.10,2013-09-08 07:10:00,
2013-09-08 03:25:00,57.3,54.0,29.69,South,184,0.0,0.0,88,0.00,,,0.00,weatherlink.com 1.10,2013-09-08 07:25:00,
2013-09-08 03:40:00,57.7,54.0,29.69,South,184,0.0,1.0,86,0.00,,,0.00,weatherlink.com 1.10,2013-09-08 07:40:00,
2013-09-08 03:55:00,57.8,53.0,29.69,South,184,0.0,1.0,84,0.00,,,0.00,weatherlink.com 1.10,2013-09-08 07:55:00,
2013-09-08 04:11:00,57.9,52.0,29.68,ESE,121,0.0,2.0,82,0.00,,,0.00,weatherlink.com 1.10,2013-09-08 08:11:00,
2013-09-08 04:25:00,58.5,53.0,29.68,ESE,121,0.0,1.0,82,0.00,,,0.00,weatherlink.com 1.10,2013-09-08 08:25:00,
2013-09-08 04:40:00,59.0,52.0,29.68,SW,234,0.0,1.0,78,0.00,,,0.00,weatherlink.com 1.10,2013-09-08 08:40:00,
2013-09-08 04:55:00,59.7,52.0,29.67,South,178,2.0,5.0,77,0.00,,,0.00,weatherlink.com 1.10,2013-09-08 08:55:00,
2013-09-08 05:10:00,59.0,53.0,29.66,SE,138,0.0,1.0,80,0.00,,,0.00,weatherlink.com 1.10,2013-09-08 09:10:00,
2013-09-08 05:25:00,58.0,53.0,29.67,SE,138,0.0,1.0,83,0.00,,,0.00,weatherlink.com 1.10,2013-09-08 09:25:00,
2013-09-08 05:40:00,57.0,53.0,29.67,SE,138,0.0,1.0,85,0.00,,,0.00,weatherlink.com 1.10,2013-09-08 09:40:00,
2013-09-08 05:55:00,56.1,52.0,29.67,SE,138,0.0,0.0,87,0.00,,,0.00,weatherlink.com 1.10,2013-09-08 09:55:00,
2013-09-08 06:11:00,55.7,53.0,29.66,SE,138,0.0,1.0,89,0.00,,,0.00,weatherlink.com 1.10,2013-09-08 10:11:00,
2013-09-08 06:26:00,55.5,53.0,29.67,SE,138,0.0,1.0,90,0.00,,,0.00,weatherlink.com 1.10,2013-09-08 10:26:00,
2013-09-08 06:41:00,55.6,53.0,29.67,SE,138,0.0,0.0,91,0.00,,,0.00,weatherlink.com 1.10,2013-09-08 10:41:00,
2013-09-08 06:56:00,55.7,54.0,29.67,SE,138,0.0,0.0,92,0.00,,,0.00,weatherlink.com 1.10,2013-09-08 10:56:00,
2013-09-08 07:10:00,56.0,54.0,29.67,SE,138,0.0,0.0,92,0.00,,,0.00,weatherlink.com 1.10,2013-09-08 11:10:00,
2013-09-08 07:25:00,56.9,55.0,29.67,SE,138,0.0,1.0,92,0.00,,,0.00,weatherlink.com 1.10,2013-09-08 11:25:00,
2013-09-08 07:41:00,57.8,55.0,29.66,SE,138,0.0,0.0,90,0.00,,,0.00,weatherlink.com 1.10,2013-09-08 11:41:00,
2013-09-08 07:56:00,58.8,56.0,29.66,SE,138,0.0,1.0,90,0.00,,,0.00,weatherlink.com 1.10,2013-09-08 11:56:00,
2013-09-08 08:11:00,61.0,57.0,29.65,SSW,205,0.0,2.0,86,0.00,,,0.00,weatherlink.com 1.10,2013-09-08 12:11:00,
2013-09-08 08:26:00,63.1,57.0,29.66,North,355,3.0,8.0,80,0.00,,,0.00,weatherlink.com 1.10,2013-09-08 12:26:00,
2013-09-08 08:41:00,62.5,57.0,29.66,NNE,23,0.0,10.0,81,0.00,,,0.00,weatherlink.com 1.10,2013-09-08 12:41:00,
2013-09-08 08:56:00,61.7,57.0,29.67,North,360,1.0,8.0,85,0.00,,,0.00,weatherlink.com 1.10,2013-09-08 12:56:00,
2013-09-08 09:10:00,61.3,57.0,29.68,NNW,337,1.0,5.0,87,0.00,,,0.00,weatherlink.com 1.10,2013-09-08 13:10:00,
2013-09-08 09:25:00,61.4,58.0,29.68,NW,309,2.0,8.0,87,0.00,,,0.00,weatherlink.com 1.10,2013-09-08 13:25:00,
2013-09-08 09:40:00,62.2,57.0,29.68,NNE,15,6.0,13.0,84,0.00,,,0.00,weatherlink.com 1.10,2013-09-08 13:40:00,
2013-09-08 09:55:00,61.9,57.0,29.69,NNW,328,7.0,11.0,84,0.00,,,0.00,weatherlink.com 1.10,2013-09-08 13:55:00,
2013-09-08 10:11:00,61.1,54.0,29.69,North,349,9.0,12.0,76,0.00,,,0.00,weatherlink.com 1.10,2013-09-08 14:11:00,
2013-09-08 10:26:00,60.4,53.0,29.70,WNW,302,2.0,12.0,77,0.00,,,0.00,weatherlink.com 1.10,2013-09-08 14:26:00,
2013-09-08 10:41:00,61.5,54.0,29.71,East,82,1.0,10.0,75,0.00,,,0.00,weatherlink.com 1.10,2013-09-08 14:41:00,
2013-09-08 10:56:00,61.8,53.0,29.71,NNE,24,2.0,16.0,74,0.00,,,0.00,weatherlink.com 1.10,2013-09-08 14:56:00,
2013-09-08 11:11:00,62.0,50.0,29.71,NNE,19,0.0,14.0,66,0.00,,,0.00,weatherlink.com 1.10,2013-09-08 15:11:00,
2013-09-08 11:26:00,63.2,51.0,29.72,NE,41,4.0,14.0,64,0.00,,,0.00,weatherlink.com 1.10,2013-09-08 15:26:00,
2013-09-08 11:41:00,63.3,49.0,29.72,WNW,288,3.0,17.0,59,0.00,,,0.00,weatherlink.com 1.10,2013-09-08 15:41:00,
2013-09-08 11:55:00,63.0,48.0,29.72,NE,46,5.0,17.0,58,0.00,,,0.00,weatherlink.com 1.10,2013-09-08 15:55:00,
2013-09-08 12:10:00,62.9,48.0,29.73,NW,315,0.0,14.0,59,0.00,,,0.00,weatherlink.com 1.10,2013-09-08 16:10:00,
2013-09-08 12:26:00,62.9,47.0,29.73,ENE,70,8.0,15.0,56,0.00,,,0.00,weatherlink.com 1.10,2013-09-08 16:26:00,
2013-09-08 12:41:00,63.2,46.0,29.73,WSW,242,4.0,23.0,53,0.00,,,0.00,weatherlink.com 1.10,2013-09-08 16:41:00,
2013-09-08 12:56:00,62.9,46.0,29.74,WSW,250,3.0,14.0,54,0.00,,,0.00,weatherlink.com 1.10,2013-09-08 16:56:00,
2013-09-08 13:10:00,63.1,47.0,29.75,WNW,285,4.0,15.0,56,0.00,,,0.00,weatherlink.com 1.10,2013-09-08 17:10:00,
2013-09-08 13:26:00,62.6,45.0,29.75,North,9,3.0,15.0,53,0.00,,,0.00,weatherlink.com 1.10,2013-09-08 17:26:00,
2013-09-08 13:41:00,62.3,45.0,29.76,NNE,28,4.0,30.0,54,0.00,,,0.00,weatherlink.com 1.10,2013-09-08 17:41:00,
2013-09-08 13:56:00,61.8,45.0,29.77,NNE,23,6.0,13.0,54,0.00,,,0.00,weatherlink.com 1.10,2013-09-08 17:56:00,
2013-09-08 14:11:00,61.8,45.0,29.77,NNW,335,9.0,11.0,54,0.00,,,0.00,weatherlink.com 1.10,2013-09-08 18:11:00,
2013-09-08 14:26:00,61.7,46.0,29.78,North,355,8.0,13.0,57,0.00,,,0.00,weatherlink.com 1.10,2013-09-08 18:26:00,
2013-09-08 14:40:00,62.2,44.0,29.78,North,10,5.0,12.0,51,0.00,,,0.00,weatherlink.com 1.10,2013-09-08 18:40:00,
2013-09-08 14:56:00,62.5,44.0,29.79,North,360,6.0,13.0,52,0.00,,,0.00,weatherlink.com 1.10,2013-09-08 18:56:00,
2013-09-08 15:11:00,61.9,45.0,29.80,NW,319,5.0,11.0,54,0.00,,,0.00,weatherlink.com 1.10,2013-09-08 19:11:00,
2013-09-08 15:26:00,62.2,44.0,29.80,NNE,24,4.0,8.0,52,0.00,,,0.00,weatherlink.com 1.10,2013-09-08 19:26:00,
2013-09-08 15:41:00,61.7,44.0,29.80,NNE,24,1.0,14.0,53,0.00,,,0.00,weatherlink.com 1.10,2013-09-08 19:41:00,
2013-09-08 15:56:00,61.2,43.0,29.81,NNE,32,2.0,13.0,51,0.00,,,0.00,weatherlink.com 1.10,2013-09-08 19:56:00,
2013-09-08 16:11:00,61.0,44.0,29.82,NNW,338,0.0,10.0,54,0.00,,,0.00,weatherlink.com 1.10,2013-09-08 20:11:00,
2013-09-08 16:26:00,60.0,44.0,29.82,North,349,3.0,14.0,55,0.00,,,0.00,weatherlink.com 1.10,2013-09-08 20:26:00,
2013-09-08 16:41:00,60.0,43.0,29.82,NNW,338,11.0,13.0,53,0.00,,,0.00,weatherlink.com 1.10,2013-09-08 20:41:00,
2013-09-08 16:56:00,60.3,43.0,29.83,NNE,33,1.0,10.0,54,0.00,,,0.00,weatherlink.com 1.10,2013-09-08 20:56:00,
2013-09-08 17:11:00,60.8,43.0,29.83,North,355,2.0,9.0,52,0.00,,,0.00,weatherlink.com 1.10,2013-09-08 21:11:00,
2013-09-08 17:26:00,60.9,42.0,29.84,NW,319,1.0,10.0,50,0.00,,,0.00,weatherlink.com 1.10,2013-09-08 21:26:00,
2013-09-08 17:41:00,60.2,42.0,29.85,NW,325,2.0,8.0,52,0.00,,,0.00,weatherlink.com 1.10,2013-09-08 21:41:00,
2013-09-08 17:56:00,59.6,42.0,29.85,NW,309,0.0,11.0,52,0.00,,,0.00,weatherlink.com 1.10,2013-09-08 21:56:00,
2013-09-08 18:11:00,58.6,42.0,29.86,NE,46,0.0,8.0,55,0.00,,,0.00,weatherlink.com 1.10,2013-09-08 22:11:00,
2013-09-08 18:26:00,57.6,40.0,29.86,NNW,343,0.0,8.0,53,0.00,,,0.00,weatherlink.com 1.10,2013-09-08 22:26:00,
2013-09-08 18:42:00,56.9,41.0,29.87,NNW,345,0.0,7.0,55,0.00,,,0.00,weatherlink.com 1.10,2013-09-08 22:42:00,
2013-09-08 18:56:00,55.8,42.0,29.87,NNW,346,0.0,1.0,61,0.00,,,0.00,weatherlink.com 1.10,2013-09-08 22:56:00,
2013-09-08 19:11:00,54.3,43.0,29.89,WSW,244,1.0,4.0,65,0.00,,,0.00,weatherlink.com 1.10,2013-09-08 23:11:00,
2013-09-08 19:26:00,53.7,44.0,29.90,NW,312,0.0,3.0,69,0.00,,,0.00,weatherlink.com 1.10,2013-09-08 23:26:00,
2013-09-08 19:41:00,53.1,42.0,29.90,NNE,12,0.0,4.0,67,0.00,,,0.00,weatherlink.com 1.10,2013-09-08 23:41:00,
2013-09-08 19:56:00,51.7,43.0,29.91,NNE,12,0.0,2.0,73,0.00,,,0.00,weatherlink.com 1.10,2013-09-08 23:56:00,
2013-09-08 20:11:00,50.5,43.0,29.92,NW,306,0.0,3.0,76,0.00,,,0.00,weatherlink.com 1.10,2013-09-09 00:11:00,
2013-09-08 20:26:00,49.9,43.0,29.93,NW,306,0.0,0.0,76,0.00,,,0.00,weatherlink.com 1.10,2013-09-09 00:26:00,
2013-09-08 20:42:00,49.2,43.0,29.95,NW,306,0.0,1.0,80,0.00,,,0.00,weatherlink.com 1.10,2013-09-09 00:42:00,
2013-09-08 20:56:00,49.1,44.0,29.95,NW,306,0.0,0.0,83,0.00,,,0.00,weatherlink.com 1.10,2013-09-09 00:56:00,
2013-09-08 21:11:00,49.1,45.0,29.96,NW,306,0.0,0.0,84,0.00,,,0.00,weatherlink.com 1.10,2013-09-09 01:11:00,
2013-09-08 21:27:00,48.9,44.0,29.96,NW,306,0.0,0.0,84,0.00,,,0.00,weatherlink.com 1.10,2013-09-09 01:27:00,
2013-09-08 21:42:00,49.4,44.0,29.96,NW,306,0.0,1.0,80,0.00,,,0.00,weatherlink.com 1.10,2013-09-09 01:42:00,
2013-09-08 21:57:00,50.2,44.0,29.98,NW,306,0.0,1.0,78,0.00,,,0.00,weatherlink.com 1.10,2013-09-09 01:57:00,
2013-09-08 22:11:00,49.9,44.0,29.98,NW,306,0.0,1.0,80,0.00,,,0.00,weatherlink.com 1.10,2013-09-09 02:11:00,
2013-09-08 22:26:00,49.1,43.0,29.99,NW,307,0.0,1.0,79,0.00,,,0.00,weatherlink.com 1.10,2013-09-09 02:26:00,
2013-09-08 22:42:00,48.7,43.0,29.99,NW,307,0.0,0.0,80,0.00,,,0.00,weatherlink.com 1.10,2013-09-09 02:42:00,
2013-09-08 22:56:00,48.1,43.0,29.99,NW,309,0.0,2.0,83,0.00,,,0.00,weatherlink.com 1.10,2013-09-09 02:56:00,
2013-09-08 23:12:00,47.7,43.0,30.00,NW,309,0.0,1.0,82,0.00,,,0.00,weatherlink.com 1.10,2013-09-09 03:12:00,
2013-09-08 23:27:00,47.1,43.0,29.99,NW,309,0.0,1.0,84,0.00,,,0.00,weatherlink.com 1.10,2013-09-09 03:27:00,
2013-09-08 23:42:00,46.6,42.0,29.99,NW,309,0.0,1.0,84,0.00,,,0.00,weatherlink.com 1.10,2013-09-09 03:42:00,
2013-09-08 23:56:00,46.6,42.0,30.00,NW,309,0.0,2.0,85,0.00,,,0.00,weatherlink.com 1.10,2013-09-09 03:56:00,